createdAt,value
2018-10-05T00:01:25.655Z,4.80
2018-10-05T00:03:53.796Z,4.75
2018-10-05T00:06:21.995Z,4.75
2018-10-05T00:08:50.207Z,4.73
2018-10-05T00:11:18.293Z,4.71
2018-10-05T00:13:46.487Z,4.67
2018-10-05T00:16:14.658Z,4.68
2018-10-05T00:18:42.818Z,4.65
2018-10-05T00:21:10.939Z,4.74
2018-10-05T00:23:39.182Z,4.82
2018-10-05T00:26:07.336Z,4.88
2018-10-05T00:28:35.519Z,4.90
2018-10-05T00:31:03.688Z,4.92
2018-10-05T00:33:31.892Z,4.84
2018-10-05T00:36:00.263Z,4.81
2018-10-05T00:38:28.388Z,4.83
2018-10-05T00:40:58.787Z,4.88
2018-10-05T00:43:27.213Z,4.89
2018-10-05T00:45:55.370Z,4.60
2018-10-05T00:48:23.773Z,4.53
2018-10-05T00:50:51.885Z,4.46
2018-10-05T00:53:20.097Z,4.38
2018-10-05T00:55:48.321Z,4.28
2018-10-05T00:58:16.517Z,4.31
2018-10-05T01:00:44.719Z,4.41
2018-10-05T01:03:12.876Z,4.39
2018-10-05T01:05:41.147Z,4.47
2018-10-05T01:08:09.242Z,4.49
2018-10-05T01:10:37.358Z,4.44
2018-10-05T01:13:05.664Z,4.32
2018-10-05T01:15:34.036Z,4.39
2018-10-05T01:18:02.192Z,4.34
2018-10-05T01:20:30.362Z,4.29
2018-10-05T01:22:58.548Z,4.28
2018-10-05T01:25:26.715Z,4.26
2018-10-05T01:27:54.862Z,4.23
2018-10-05T01:30:23.004Z,4.21
2018-10-05T01:32:51.194Z,4.16
2018-10-05T01:35:19.335Z,4.13
2018-10-05T01:37:47.444Z,4.06
2018-10-05T01:40:15.560Z,4.04
2018-10-05T01:42:43.704Z,3.98
2018-10-05T01:45:11.848Z,4.05
2018-10-05T01:47:40.035Z,3.88
2018-10-05T01:50:08.226Z,3.90
2018-10-05T01:52:36.403Z,3.69
2018-10-05T01:55:04.594Z,3.65
2018-10-05T01:57:32.751Z,3.60
2018-10-05T02:00:00.954Z,3.52
2018-10-05T02:02:29.090Z,3.58
2018-10-05T02:04:57.178Z,3.63
2018-10-05T02:07:25.473Z,3.60
2018-10-05T02:09:53.576Z,3.58
2018-10-05T02:12:21.724Z,3.64
2018-10-05T02:14:49.881Z,3.52
2018-10-05T02:17:18.104Z,3.61
2018-10-05T02:19:47.069Z,3.52
2018-10-05T02:22:15.229Z,3.48
2018-10-05T02:24:43.327Z,3.43
2018-10-05T02:27:11.505Z,3.32
2018-10-05T02:29:39.591Z,3.32
2018-10-05T02:32:07.740Z,3.40
2018-10-05T02:34:35.852Z,3.48
2018-10-05T02:37:03.940Z,3.29
2018-10-05T02:39:32.156Z,3.41
2018-10-05T02:42:00.224Z,3.33
2018-10-05T02:44:28.332Z,3.35
2018-10-05T02:46:56.480Z,3.18
2018-10-05T02:49:24.623Z,3.05
2018-10-05T02:51:53.787Z,3.09
2018-10-05T02:54:21.905Z,3.05
2018-10-05T02:56:50.129Z,3.05
2018-10-05T02:59:18.257Z,2.99
2018-10-05T03:01:57.542Z,3.03
2018-10-05T03:04:25.791Z,2.96
2018-10-05T03:06:53.847Z,2.91
2018-10-05T03:09:21.995Z,2.88
2018-10-05T03:11:50.193Z,2.80
2018-10-05T03:14:18.340Z,2.74
2018-10-05T03:16:46.445Z,2.77
2018-10-05T03:19:14.687Z,2.74
2018-10-05T03:21:42.963Z,2.65
2018-10-05T03:24:12.262Z,2.57
2018-10-05T03:26:40.619Z,2.61
2018-10-05T03:29:08.773Z,2.59
2018-10-05T03:31:37.066Z,2.58
2018-10-05T03:34:05.316Z,2.65
2018-10-05T03:36:33.497Z,2.62
2018-10-05T03:39:01.736Z,2.58
2018-10-05T03:41:29.940Z,2.66
2018-10-05T03:43:58.087Z,2.68
2018-10-05T03:46:26.289Z,2.60
2018-10-05T03:48:54.460Z,2.52
2018-10-05T03:51:22.709Z,2.59
2018-10-05T03:53:50.935Z,2.59
2018-10-05T03:56:19.117Z,2.58
2018-10-05T03:58:47.293Z,2.49
2018-10-05T04:01:15.574Z,2.42
2018-10-05T04:03:44.097Z,2.37
2018-10-05T04:06:12.352Z,2.31
2018-10-05T04:08:40.651Z,2.24
2018-10-05T04:11:08.748Z,2.38
2018-10-05T04:13:36.987Z,2.42
2018-10-05T04:16:05.149Z,2.37
2018-10-05T04:18:33.307Z,2.31
2018-10-05T04:21:01.902Z,2.21
2018-10-05T04:23:30.217Z,2.16
2018-10-05T04:25:58.414Z,2.19
2018-10-05T04:28:26.634Z,2.20
2018-10-05T04:30:54.877Z,2.23
2018-10-05T04:33:23.043Z,2.16
2018-10-05T04:35:51.393Z,2.26
2018-10-05T04:38:19.535Z,2.40
2018-10-05T04:40:47.771Z,2.42
2018-10-05T04:43:16.140Z,2.50
2018-10-05T04:45:44.356Z,2.44
2018-10-05T04:48:12.505Z,2.47
2018-10-05T04:50:40.813Z,2.58
2018-10-05T04:53:09.249Z,2.56
2018-10-05T04:55:37.489Z,2.52
2018-10-05T04:58:05.670Z,2.59
2018-10-05T05:00:33.991Z,2.72
2018-10-05T05:03:02.310Z,2.77
2018-10-05T05:05:30.894Z,2.89
2018-10-05T05:07:59.100Z,2.94
2018-10-05T05:10:27.390Z,3.13
2018-10-05T05:12:55.565Z,3.21
2018-10-05T05:15:24.254Z,3.21
2018-10-05T05:17:52.376Z,3.01
2018-10-05T05:20:20.524Z,3.20
2018-10-05T05:22:48.745Z,3.70
2018-10-05T05:25:16.803Z,4.56
2018-10-05T05:27:45.117Z,5.48
2018-10-05T05:30:13.555Z,5.95
2018-10-05T05:32:41.675Z,6.09
2018-10-05T05:35:09.756Z,6.42
2018-10-05T05:37:38.388Z,6.71
2018-10-05T05:40:07.015Z,6.95
2018-10-05T05:42:35.204Z,6.63
2018-10-05T05:45:03.535Z,6.46
2018-10-05T05:47:31.806Z,6.29
2018-10-05T05:50:00.054Z,6.10
2018-10-05T05:52:29.634Z,6.18
2018-10-05T05:54:58.759Z,6.21
2018-10-05T05:57:27.532Z,6.10
2018-10-05T05:59:55.700Z,6.31
2018-10-05T06:02:23.815Z,6.23
2018-10-05T06:04:52.078Z,6.39
2018-10-05T06:07:20.447Z,6.65
2018-10-05T06:09:48.751Z,6.77
2018-10-05T06:12:16.888Z,6.83
2018-10-05T06:14:45.048Z,7.07
2018-10-05T06:17:13.230Z,7.10
2018-10-05T06:19:41.578Z,7.29
2018-10-05T06:22:09.854Z,7.51
2018-10-05T06:24:37.991Z,7.96
2018-10-05T06:27:06.694Z,8.21
2018-10-05T06:29:34.923Z,8.41
2018-10-05T06:32:03.025Z,8.60
2018-10-05T06:34:31.210Z,8.57
2018-10-05T06:36:59.506Z,8.97
2018-10-05T06:39:27.722Z,9.51
2018-10-05T06:41:56.082Z,9.56
2018-10-05T06:44:24.504Z,9.75
2018-10-05T06:46:52.640Z,10.10
2018-10-05T06:49:21.144Z,10.45
2018-10-05T06:51:49.599Z,10.18
2018-10-05T06:54:17.687Z,10.55
2018-10-05T06:56:45.827Z,10.74
2018-10-05T06:59:14.197Z,11.02
2018-10-05T07:01:42.587Z,11.17
2018-10-05T07:04:10.949Z,11.16
2018-10-05T07:06:39.728Z,11.44
2018-10-05T07:09:08.454Z,11.67
2018-10-05T07:11:36.810Z,11.66
2018-10-05T07:14:04.959Z,11.96
2018-10-05T07:16:33.717Z,11.63
2018-10-05T07:19:02.030Z,11.77
2018-10-05T07:21:30.636Z,11.63
2018-10-05T07:23:59.021Z,11.97
2018-10-05T07:26:28.156Z,11.92
2018-10-05T07:28:56.454Z,12.24
2018-10-05T07:31:25.875Z,12.09
2018-10-05T07:33:54.228Z,12.43
2018-10-05T07:36:22.703Z,12.48
2018-10-05T07:38:51.321Z,12.72
2018-10-05T07:41:19.832Z,12.54
2018-10-05T07:43:48.360Z,12.69
2018-10-05T07:46:16.964Z,12.31
2018-10-05T07:48:45.196Z,12.47
2018-10-05T07:51:13.400Z,12.62
2018-10-05T07:53:41.690Z,12.94
2018-10-05T07:56:09.887Z,13.05
2018-10-05T07:58:38.204Z,12.56
2018-10-05T08:01:06.407Z,12.92
2018-10-05T08:03:34.703Z,13.51
2018-10-05T08:06:03.010Z,13.51
2018-10-05T08:08:31.364Z,13.67
2018-10-05T08:10:59.701Z,13.57
2018-10-05T08:13:28.267Z,13.75
2018-10-05T08:15:56.689Z,14.12
2018-10-05T08:18:24.883Z,13.83
2018-10-05T08:20:53.148Z,14.34
2018-10-05T08:23:21.464Z,14.73
2018-10-05T08:25:49.775Z,14.86
2018-10-05T08:28:18.029Z,14.97
2018-10-05T08:30:46.401Z,14.95
2018-10-05T08:33:14.615Z,15.08
2018-10-05T08:35:42.824Z,15.27
2018-10-05T08:38:11.032Z,14.89
2018-10-05T08:40:39.259Z,14.90
2018-10-05T08:43:07.570Z,15.16
2018-10-05T08:45:35.878Z,15.01
2018-10-05T08:48:04.301Z,15.13
2018-10-05T08:50:32.598Z,15.60
2018-10-05T08:53:00.869Z,16.28
2018-10-05T08:55:29.198Z,16.43
2018-10-05T08:57:57.585Z,16.61
2018-10-05T09:00:25.910Z,16.51
2018-10-05T09:02:54.335Z,16.52
2018-10-05T09:05:22.948Z,16.67
2018-10-05T09:07:51.306Z,16.81
2018-10-05T09:10:19.428Z,16.78
2018-10-05T09:12:47.575Z,17.10
2018-10-05T09:15:15.803Z,17.16
2018-10-05T09:17:43.962Z,17.11
2018-10-05T09:20:12.102Z,17.30
2018-10-05T09:22:40.446Z,17.92
2018-10-05T09:25:08.537Z,18.57
2018-10-05T09:27:36.848Z,18.75
2018-10-05T09:30:05.045Z,18.90
2018-10-05T09:32:33.312Z,19.00
2018-10-05T09:35:01.556Z,19.30
2018-10-05T09:37:29.813Z,19.48
2018-10-05T09:39:57.950Z,20.02
2018-10-05T09:42:26.129Z,19.63
2018-10-05T09:44:54.285Z,19.79
2018-10-05T09:47:22.770Z,19.70
2018-10-05T09:49:50.947Z,19.67
2018-10-05T09:52:19.237Z,20.03
2018-10-05T09:54:47.426Z,19.81
2018-10-05T09:57:15.625Z,19.49
2018-10-05T09:59:44.041Z,19.15
2018-10-05T10:02:13.489Z,19.69
2018-10-05T10:04:41.770Z,19.89
2018-10-05T10:07:10.147Z,19.71
2018-10-05T10:09:38.380Z,19.87
2018-10-05T10:12:06.553Z,19.89
2018-10-05T10:14:34.658Z,19.38
2018-10-05T10:17:02.783Z,19.83
2018-10-05T10:19:31.302Z,20.03
2018-10-05T10:21:59.531Z,20.14
2018-10-05T10:24:27.810Z,20.15
2018-10-05T10:26:56.289Z,20.66
2018-10-05T10:29:24.591Z,20.65
2018-10-05T10:31:53.047Z,20.51
2018-10-05T10:34:21.459Z,20.28
2018-10-05T10:36:50.032Z,20.70
2018-10-05T10:39:18.416Z,20.43
2018-10-05T10:41:46.871Z,20.59
2018-10-05T10:44:15.260Z,20.79
2018-10-05T10:46:43.930Z,20.71
2018-10-05T10:49:12.804Z,20.90
2018-10-05T10:51:41.237Z,20.89
2018-10-05T10:54:09.487Z,20.85
2018-10-05T10:56:37.649Z,20.96
2018-10-05T10:59:05.950Z,20.93
2018-10-05T11:01:34.002Z,20.81
2018-10-05T11:04:02.627Z,21.04
2018-10-05T11:06:30.826Z,20.97
2018-10-05T11:08:59.064Z,20.87
2018-10-05T11:11:27.239Z,21.23
2018-10-05T11:13:55.417Z,20.70
2018-10-05T11:16:23.846Z,20.85
2018-10-05T11:18:52.365Z,21.29
2018-10-05T11:21:20.806Z,21.60
2018-10-05T11:23:49.116Z,21.68
2018-10-05T11:26:17.241Z,21.69
2018-10-05T11:28:45.392Z,21.66
2018-10-05T11:31:13.683Z,21.67
2018-10-05T11:33:42.353Z,21.67
2018-10-05T11:36:10.744Z,21.59
2018-10-05T11:38:38.966Z,21.77
2018-10-05T11:41:07.426Z,21.69
2018-10-05T11:43:35.649Z,21.67
2018-10-05T11:46:04.310Z,21.63
2018-10-05T11:48:32.818Z,21.48
2018-10-05T11:51:01.338Z,21.82
2018-10-05T11:53:29.653Z,21.59
2018-10-05T11:55:57.947Z,21.42
2018-10-05T11:58:26.198Z,21.29
2018-10-05T12:00:54.250Z,21.37
2018-10-05T12:03:22.735Z,21.54
2018-10-05T12:05:51.042Z,21.74
2018-10-05T12:08:19.521Z,21.50
2018-10-05T12:10:47.891Z,21.35
2018-10-05T12:13:16.184Z,21.31
2018-10-05T12:15:44.497Z,21.61
2018-10-05T12:18:13.232Z,21.48
2018-10-05T12:20:41.584Z,21.23
2018-10-05T12:23:09.838Z,21.40
2018-10-05T12:25:38.164Z,21.64
2018-10-05T12:28:06.687Z,21.57
2018-10-05T12:30:35.229Z,21.63
2018-10-05T12:33:04.239Z,21.37
2018-10-05T12:35:33.075Z,21.39
2018-10-05T12:38:01.443Z,21.58
2018-10-05T12:40:29.761Z,21.37
2018-10-05T12:42:57.969Z,21.47
2018-10-05T12:45:26.550Z,21.56
2018-10-05T12:47:54.863Z,21.62
2018-10-05T12:50:26.352Z,21.71
2018-10-05T12:52:55.122Z,21.37
2018-10-05T12:55:23.474Z,21.48
2018-10-05T12:57:51.832Z,21.52
2018-10-05T13:00:20.263Z,21.64
2018-10-05T13:02:48.709Z,21.46
2018-10-05T13:05:16.861Z,21.53
2018-10-05T13:07:45.665Z,21.41
2018-10-05T13:10:14.710Z,21.48
2018-10-05T13:12:43.579Z,21.41
2018-10-05T13:15:12.055Z,21.31
2018-10-05T13:17:40.970Z,21.44
2018-10-05T13:20:09.524Z,21.31
2018-10-05T13:22:38.074Z,21.52
2018-10-05T13:25:07.037Z,21.52
2018-10-05T13:27:35.454Z,21.46
2018-10-05T13:30:03.944Z,21.34
2018-10-05T13:32:32.297Z,21.28
2018-10-05T13:35:00.752Z,21.16
2018-10-05T13:37:29.381Z,21.18
2018-10-05T13:39:57.987Z,21.03
2018-10-05T13:42:26.844Z,20.78
2018-10-05T13:44:55.305Z,20.84
2018-10-05T13:47:23.841Z,20.81
2018-10-05T13:49:52.594Z,20.97
2018-10-05T13:52:34.285Z,21.09
2018-10-05T13:55:04.649Z,21.01
2018-10-05T13:57:33.733Z,20.67
2018-10-05T14:00:02.173Z,20.72
2018-10-05T14:02:31.058Z,20.72
2018-10-05T14:05:00.795Z,20.67
2018-10-05T14:07:29.236Z,20.60
2018-10-05T14:10:05.364Z,20.38
2018-10-05T14:12:33.973Z,20.37
2018-10-05T14:15:02.547Z,20.65
2018-10-05T14:17:31.225Z,20.45
2018-10-05T14:20:01.664Z,20.56
2018-10-05T14:22:44.148Z,20.34
2018-10-05T14:25:29.142Z,20.15
2018-10-05T14:27:58.445Z,19.61
2018-10-05T14:30:26.804Z,19.42
2018-10-05T14:32:55.135Z,19.38
2018-10-05T14:35:23.695Z,19.49
2018-10-05T14:37:51.988Z,19.31
2018-10-05T14:40:20.126Z,19.26
2018-10-05T14:42:48.199Z,19.21
2018-10-05T14:45:16.472Z,19.04
2018-10-05T14:47:44.575Z,18.95
2018-10-05T14:50:13.421Z,18.88
2018-10-05T14:52:41.994Z,18.77
2018-10-05T14:55:10.532Z,18.48
2018-10-05T14:57:38.926Z,18.08
2018-10-05T15:00:07.442Z,18.02
2018-10-05T15:02:35.870Z,17.94
2018-10-05T15:05:04.348Z,17.84
2018-10-05T15:07:32.852Z,17.81
2018-10-05T15:10:01.278Z,17.70
2018-10-05T15:12:32.829Z,17.49
2018-10-05T15:15:01.746Z,17.41
2018-10-05T15:17:30.348Z,17.15
2018-10-05T15:19:58.728Z,16.89
2018-10-05T15:22:27.050Z,17.40
2018-10-05T15:24:55.411Z,17.34
2018-10-05T15:27:24.890Z,17.14
2018-10-05T15:29:53.329Z,17.29
2018-10-05T15:32:21.735Z,17.15
2018-10-05T15:34:50.419Z,16.97
2018-10-05T15:37:18.708Z,17.16
2018-10-05T15:39:47.094Z,17.00
2018-10-05T15:42:15.552Z,17.06
2018-10-05T15:44:44.146Z,17.10
2018-10-05T15:47:15.023Z,17.11
2018-10-05T15:49:44.577Z,16.89
2018-10-05T15:52:13.106Z,16.86
2018-10-05T15:54:41.381Z,16.79
2018-10-05T15:57:09.890Z,16.58
2018-10-05T15:59:38.770Z,16.45
2018-10-05T16:02:07.298Z,16.38
2018-10-05T16:04:35.616Z,16.47
2018-10-05T16:07:04.359Z,16.45
2018-10-05T16:09:32.838Z,16.32
2018-10-05T16:12:01.373Z,16.20
2018-10-05T16:14:30.397Z,15.95
2018-10-05T16:16:59.515Z,15.74
2018-10-05T16:19:31.044Z,15.65
2018-10-05T16:22:02.232Z,15.46
2018-10-05T16:24:38.185Z,15.48
2018-10-05T16:27:09.709Z,15.47
2018-10-05T16:29:38.985Z,15.49
2018-10-05T16:32:10.019Z,15.42
2018-10-05T16:34:42.070Z,15.53
2018-10-05T16:37:10.655Z,15.41
2018-10-05T16:39:39.055Z,15.45
2018-10-05T16:42:07.125Z,15.21
2018-10-05T16:44:35.782Z,15.34
2018-10-05T16:47:04.063Z,15.18
2018-10-05T16:49:32.551Z,15.23
2018-10-05T16:52:00.812Z,15.00
2018-10-05T16:54:30.114Z,15.02
2018-10-05T16:56:58.851Z,14.66
2018-10-05T16:59:27.145Z,14.60
2018-10-05T17:01:55.269Z,14.43
2018-10-05T17:04:23.496Z,14.17
2018-10-05T17:06:51.815Z,14.05
2018-10-05T17:09:20.006Z,13.70
2018-10-05T17:11:48.191Z,13.86
2018-10-05T17:14:16.360Z,13.85
2018-10-05T17:16:44.594Z,13.59
2018-10-05T17:19:12.795Z,13.74
2018-10-05T17:21:41.015Z,13.59
2018-10-05T17:24:09.382Z,13.57
2018-10-05T17:26:37.572Z,13.46
2018-10-05T17:29:05.806Z,13.19
2018-10-05T17:31:33.923Z,13.35
2018-10-05T17:34:02.151Z,13.31
2018-10-05T17:36:30.341Z,13.36
2018-10-05T17:38:58.708Z,13.44
2018-10-05T17:41:26.885Z,13.38
2018-10-05T17:43:55.051Z,13.35
2018-10-05T17:46:23.316Z,13.04
2018-10-05T17:48:51.934Z,13.04
2018-10-05T17:51:20.142Z,13.19
2018-10-05T17:53:48.341Z,13.07
2018-10-05T17:56:16.773Z,12.97
2018-10-05T17:58:44.972Z,12.70
2018-10-05T18:01:13.489Z,12.56
2018-10-05T18:03:41.762Z,12.23
2018-10-05T18:06:10.080Z,12.20
2018-10-05T18:08:38.341Z,12.02
2018-10-05T18:11:06.956Z,11.90
2018-10-05T18:13:35.153Z,11.93
2018-10-05T18:16:04.419Z,11.89
2018-10-05T18:18:32.836Z,11.80
2018-10-05T18:21:00.989Z,11.63
2018-10-05T18:23:29.489Z,11.45
2018-10-05T18:25:57.837Z,11.36
2018-10-05T18:28:26.298Z,11.28
2018-10-05T18:30:54.908Z,11.11
2018-10-05T18:33:23.297Z,11.06
2018-10-05T18:35:51.526Z,11.01
2018-10-05T18:38:19.756Z,11.05
2018-10-05T18:40:48.116Z,11.16
2018-10-05T18:43:16.344Z,11.02
2018-10-05T18:45:44.823Z,10.98
2018-10-05T18:48:13.080Z,11.00
2018-10-05T18:50:41.323Z,10.81
2018-10-05T18:53:09.552Z,10.71
2018-10-05T18:55:37.763Z,10.58
2018-10-05T18:58:06.241Z,10.48
2018-10-05T19:00:34.885Z,10.37
2018-10-05T19:03:03.408Z,10.26
2018-10-05T19:05:31.806Z,10.19
2018-10-05T19:08:00.450Z,10.20
2018-10-05T19:10:29.111Z,10.21
2018-10-05T19:12:57.506Z,10.15
2018-10-05T19:15:25.726Z,10.12
2018-10-05T19:17:54.960Z,10.10
2018-10-05T19:20:23.990Z,10.07
2018-10-05T19:22:52.239Z,9.94
2018-10-05T19:25:20.558Z,9.86
2018-10-05T19:27:48.753Z,9.89
2018-10-05T19:30:17.025Z,9.97
2018-10-05T19:32:45.276Z,9.82
2018-10-05T19:35:13.551Z,9.85
2018-10-05T19:37:42.460Z,9.75
2018-10-05T19:40:10.993Z,9.75
2018-10-05T19:42:39.250Z,9.85
2018-10-05T19:45:08.255Z,9.74
2018-10-05T19:47:36.547Z,9.72
2018-10-05T19:50:05.054Z,9.64
2018-10-05T19:52:33.181Z,9.61
2018-10-05T19:55:01.539Z,9.54
2018-10-05T19:57:29.692Z,9.51
2018-10-05T19:59:58.728Z,9.54
2018-10-05T20:02:27.515Z,9.47
2018-10-05T20:04:56.228Z,9.44
2018-10-05T20:07:24.727Z,9.32
2018-10-05T20:09:53.115Z,9.30
2018-10-05T20:12:21.318Z,9.25
2018-10-05T20:14:49.703Z,9.25
2018-10-05T20:17:18.914Z,9.20
2018-10-05T20:19:47.164Z,9.19
2018-10-05T20:22:15.454Z,9.21
2018-10-05T20:24:44.411Z,9.19
2018-10-05T20:27:13.168Z,9.15
2018-10-05T20:29:41.303Z,9.21
2018-10-05T20:32:09.565Z,9.12
2018-10-05T20:34:37.754Z,9.21
2018-10-05T20:37:06.560Z,9.16
2018-10-05T20:39:34.733Z,9.10
2018-10-05T20:42:02.966Z,9.06
2018-10-05T20:44:31.239Z,9.08
2018-10-05T20:46:59.515Z,9.00
2018-10-05T20:49:27.828Z,8.90
2018-10-05T20:51:56.048Z,8.85
2018-10-05T20:54:24.233Z,8.91
2018-10-05T20:56:52.599Z,8.91
2018-10-05T20:59:20.740Z,8.84
2018-10-05T21:01:49.016Z,8.87
2018-10-05T21:04:17.398Z,8.84
2018-10-05T21:06:45.671Z,8.88
2018-10-05T21:09:14.119Z,8.81
2018-10-05T21:11:42.353Z,8.79
2018-10-05T21:14:12.130Z,8.74
2018-10-05T21:16:40.812Z,8.82
2018-10-05T21:19:10.300Z,8.69
2018-10-05T21:21:38.524Z,8.68
2018-10-05T21:24:06.753Z,8.64
2018-10-05T21:26:38.207Z,8.57
2018-10-05T21:29:08.471Z,8.56
2018-10-05T21:31:37.378Z,8.66
2018-10-05T21:34:05.644Z,8.60
2018-10-05T21:36:34.483Z,8.54
2018-10-05T21:39:08.443Z,8.50
2018-10-05T21:41:36.913Z,8.47
2018-10-05T21:44:05.297Z,8.42
2018-10-05T21:46:34.265Z,8.44
2018-10-05T21:49:02.469Z,8.48
2018-10-05T21:51:30.652Z,8.47
2018-10-05T21:53:58.811Z,8.40
2018-10-05T21:56:26.947Z,8.47
2018-10-05T21:58:55.304Z,8.36
2018-10-05T22:01:23.529Z,8.37
2018-10-05T22:03:51.852Z,8.36
2018-10-05T22:06:20.186Z,8.32
2018-10-05T22:08:48.614Z,8.30
2018-10-05T22:11:16.952Z,8.23
2018-10-05T22:13:45.381Z,8.30
2018-10-05T22:16:13.633Z,8.20
2018-10-05T22:18:41.857Z,8.20
2018-10-05T22:21:10.809Z,8.20
2018-10-05T22:23:39.150Z,8.12
2018-10-05T22:26:07.426Z,8.04
2018-10-05T22:28:35.651Z,8.01
2018-10-05T22:31:03.953Z,7.97
2018-10-05T22:33:32.287Z,7.97
2018-10-05T22:36:00.739Z,7.90
2018-10-05T22:38:28.930Z,7.86
2018-10-05T22:40:57.158Z,7.89
2018-10-05T22:43:25.400Z,7.84
2018-10-05T22:45:53.637Z,7.88
2018-10-05T22:48:21.811Z,7.76
2018-10-05T22:50:52.493Z,7.70
2018-10-05T22:53:22.039Z,7.70
2018-10-05T22:55:52.260Z,7.81
2018-10-05T22:58:20.732Z,7.86
2018-10-05T23:00:49.058Z,7.81
2018-10-05T23:03:17.486Z,7.82
2018-10-05T23:05:45.899Z,7.74
2018-10-05T23:08:15.768Z,7.73
2018-10-05T23:10:43.881Z,7.78
2018-10-05T23:13:11.970Z,7.72
2018-10-05T23:15:41.188Z,7.74
2018-10-05T23:18:09.327Z,7.71
2018-10-05T23:20:38.037Z,7.65
2018-10-05T23:23:06.666Z,7.62
2018-10-05T23:25:34.850Z,7.63
2018-10-05T23:28:03.068Z,7.55
2018-10-05T23:30:31.253Z,7.55
2018-10-05T23:32:59.467Z,7.52
2018-10-05T23:35:27.607Z,7.46
2018-10-05T23:37:55.710Z,7.39
2018-10-05T23:40:24.689Z,7.42
2018-10-05T23:42:52.886Z,7.31
2018-10-05T23:45:21.079Z,7.24
2018-10-05T23:47:49.269Z,7.21
2018-10-05T23:50:17.656Z,7.18
2018-10-05T23:52:49.002Z,7.16
2018-10-05T23:55:17.343Z,7.14
2018-10-05T23:57:46.038Z,7.20
